Time;durP1;ratioP1;P1;durP2;ratioP2;P2;SDS_P1;SDS_P2;PMS_P1;PMS_P2;Temp;Humidity;BMP_temperature;BMP_pressure;BME280_temperature;BME280_humidity;BME280_pressure;Samples;Min_cycle;Max_cycle;Signal;HPM_P1;HPM_P2
2022/07/17 00:00:45;;;;;;;1.47;0.80;;;9.60;1.00;;;;;;8336571;28;20272;-67
2022/07/17 00:04:45;;;;;;;2.57;0.80;;;9.60;1.00;;;;;;8339020;28;20200;-67
2022/07/17 00:08:46;;;;;;;2.73;1.00;;;9.70;1.00;;;;;;8326346;28;20392;-66
2022/07/17 00:12:47;;;;;;;1.37;0.60;;;9.80;1.00;;;;;;8332737;28;20221;-69
2022/07/17 00:16:48;;;;;;;1.37;0.60;;;9.80;1.00;;;;;;8352215;28;20273;-67
2022/07/17 00:20:49;;;;;;;1.30;0.70;;;9.80;1.00;;;;;;8335687;28;20233;-65
2022/07/17 00:24:49;;;;;;;1.93;0.90;;;9.70;1.00;;;;;;8340290;28;20190;-67
2022/07/17 00:28:50;;;;;;;1.57;0.60;;;9.60;1.00;;;;;;8336384;28;20185;-66
2022/07/17 00:32:51;;;;;;;2.23;0.70;;;9.50;1.00;;;;;;8341881;28;20183;-65
2022/07/17 00:36:52;;;;;;;1.13;0.70;;;9.40;1.00;;;;;;8322779;28;20186;-65
2022/07/17 00:40:55;;;;;;;3.00;0.90;;;9.30;1.00;;;;;;8319133;28;20237;-65
2022/07/17 00:44:56;;;;;;;1.27;0.60;;;9.30;1.00;;;;;;8338233;28;20274;-67
2022/07/17 00:48:57;;;;;;;1.17;0.80;;;9.20;1.00;;;;;;8325708;28;20190;-66
2022/07/17 00:52:58;;;;;;;2.47;1.20;;;9.10;1.00;;;;;;8327049;28;20271;-65
2022/07/17 00:57:02;;;;;;;1.57;0.77;;;9.00;47.50;;;;;;8317360;28;20232;-65
2022/07/17 01:01:06;;;;;;;4.00;0.90;;;8.90;90.30;;;;;;8340409;28;20248;-66
2022/07/17 01:05:07;;;;;;;1.87;0.80;;;8.90;99.90;;;;;;8335309;28;20177;-67
2022/07/17 01:09:10;;;;;;;1.07;0.63;;;8.90;99.90;;;;;;8339666;28;20193;-66
2022/07/17 01:13:11;;;;;;;2.90;0.73;;;8.90;99.90;;;;;;8349795;28;20529;-66
2022/07/17 01:17:12;;;;;;;3.67;0.80;;;8.90;99.90;;;;;;8314848;28;20186;-65
2022/07/17 01:21:13;;;;;;;3.50;1.23;;;8.90;99.90;;;;;;8331918;28;20213;-66
2022/07/17 01:25:15;;;;;;;1.40;0.80;;;8.80;99.90;;;;;;8318658;28;20522;-67
2022/07/17 01:29:16;;;;;;;2.00;0.87;;;8.80;99.90;;;;;;8330808;28;20187;-66
2022/07/17 01:33:18;;;;;;;1.23;0.90;;;8.70;99.90;;;;;;8333116;28;20202;-65
2022/07/17 01:37:18;;;;;;;2.33;0.93;;;8.70;99.90;;;;;;8332018;28;20193;-64
2022/07/17 01:41:19;;;;;;;1.57;1.07;;;8.60;99.90;;;;;;8317672;28;20213;-66
2022/07/17 01:45:20;;;;;;;1.57;0.87;;;8.60;99.90;;;;;;8337275;28;20177;-65
2022/07/17 01:49:21;;;;;;;1.73;1.00;;;8.60;99.90;;;;;;8335575;28;20182;-65
2022/07/17 01:53:22;;;;;;;2.90;1.20;;;8.60;99.90;;;;;;8326061;28;20276;-66
2022/07/17 01:57:22;;;;;;;2.57;1.00;;;8.60;99.90;;;;;;8323098;28;20257;-66
2022/07/17 02:01:23;;;;;;;2.23;0.87;;;8.60;99.90;;;;;;8340028;28;20284;-64
2022/07/17 02:05:24;;;;;;;3.03;1.17;;;8.60;1.00;;;;;;8329882;28;20200;-65
2022/07/17 02:09:25;;;;;;;2.50;0.90;;;8.60;99.90;;;;;;8352782;28;20193;-65
2022/07/17 02:13:25;;;;;;;2.07;1.20;;;8.60;1.00;;;;;;8340983;28;20198;-67
2022/07/17 02:17:26;;;;;;;2.97;1.33;;;8.50;1.00;;;;;;8335378;28;20186;-66
2022/07/17 02:21:27;;;;;;;1.73;0.90;;;8.50;1.00;;;;;;8348538;28;20243;-67
2022/07/17 02:25:28;;;;;;;2.70;1.00;;;8.40;1.00;;;;;;8323991;28;20201;-65
2022/07/17 02:29:28;;;;;;;1.63;0.80;;;8.40;1.00;;;;;;8330196;28;20193;-65
2022/07/17 02:33:29;;;;;;;4.33;1.40;;;8.40;1.00;;;;;;8357606;28;20205;-63
2022/07/17 02:37:30;;;;;;;4.13;1.73;;;8.50;1.00;;;;;;8357191;28;20193;-65
2022/07/17 02:41:31;;;;;;;3.27;1.37;;;8.60;1.00;;;;;;8327318;28;20230;-69
2022/07/17 02:45:31;;;;;;;2.00;1.00;;;8.50;1.00;;;;;;8323951;28;20186;-68
2022/07/17 02:49:32;;;;;;;2.87;1.10;;;8.50;1.00;;;;;;8347659;28;20220;-63
2022/07/17 02:53:33;;;;;;;3.00;1.00;;;8.40;1.00;;;;;;8335503;28;20255;-66
2022/07/17 02:57:34;;;;;;;2.40;0.90;;;8.40;7.00;;;;;;8324855;28;20192;-66
2022/07/17 03:01:34;;;;;;;1.37;1.00;;;8.40;79.00;;;;;;8349863;28;20181;-65
2022/07/17 03:05:35;;;;;;;3.30;1.03;;;8.40;98.60;;;;;;8332257;28;20194;-65
2022/07/17 03:09:36;;;;;;;2.97;0.93;;;8.40;99.90;;;;;;8330649;28;20198;-66
2022/07/17 03:13:37;;;;;;;1.80;1.07;;;8.40;99.90;;;;;;8326130;28;20196;-65
2022/07/17 03:17:41;;;;;;;3.73;1.20;;;8.40;99.90;;;;;;8329167;28;20195;-64
2022/07/17 03:21:42;;;;;;;2.57;1.00;;;8.40;99.90;;;;;;8340605;28;20182;-66
2022/07/17 03:25:42;;;;;;;2.73;1.07;;;8.50;99.90;;;;;;8341051;28;20196;-65
2022/07/17 03:29:44;;;;;;;3.67;1.13;;;8.80;99.90;;;;;;8328105;28;20214;-65
2022/07/17 03:33:45;;;;;;;3.77;1.37;;;9.40;30.00;;;;;;8323961;28;20291;-65
2022/07/17 03:37:45;;;;;;;2.70;1.13;;;10.30;99.90;;;;;;8322634;28;20189;-66
2022/07/17 03:41:46;;;;;;;2.47;1.13;;;11.30;1.00;;;;;;8326916;28;20186;-66
2022/07/17 03:45:47;;;;;;;4.03;1.30;;;12.20;99.90;;;;;;8336994;28;20177;-65
2022/07/17 03:49:48;;;;;;;3.00;1.20;;;13.20;99.90;;;;;;8336959;28;20202;-66
2022/07/17 03:53:48;;;;;;;4.60;1.30;;;13.90;99.90;;;;;;8342245;28;20221;-65
2022/07/17 03:57:49;;;;;;;2.30;0.90;;;14.20;90.20;;;;;;8355531;28;20192;-64
2022/07/17 04:01:50;;;;;;;3.93;1.13;;;14.90;69.10;;;;;;8321684;28;20185;-66
2022/07/17 04:05:51;;;;;;;3.93;1.10;;;15.60;8.70;;;;;;8337826;28;20178;-66
2022/07/17 04:09:54;;;;;;;3.37;1.00;;;15.90;1.00;;;;;;8342578;28;20191;-64
2022/07/17 04:13:54;;;;;;;4.07;1.40;;;16.00;1.00;;;;;;8339805;28;20262;-64
2022/07/17 04:17:55;;;;;;;2.83;1.00;;;16.50;1.00;;;;;;8339411;28;20213;-68
2022/07/17 04:21:56;;;;;;;4.93;1.30;;;16.80;1.00;;;;;;8344437;28;20197;-68
2022/07/17 04:25:57;;;;;;;3.03;1.20;;;16.90;1.00;;;;;;8342695;28;20402;-65
2022/07/17 04:29:58;;;;;;;2.67;1.20;;;16.60;1.00;;;;;;8346245;28;20185;-65
2022/07/17 04:34:01;;;;;;;4.53;0.97;;;16.60;1.00;;;;;;8345494;28;20181;-65
2022/07/17 04:38:04;;;;;;;8.03;1.50;;;16.90;1.00;;;;;;8338410;28;20229;-63
2022/07/17 04:42:04;;;;;;;7.67;1.47;;;17.20;1.00;;;;;;8324831;28;20221;-67
2022/07/17 04:46:06;;;;;;;3.10;0.90;;;17.50;1.00;;;;;;8337009;28;20205;-64
2022/07/17 04:50:08;;;;;;;3.67;1.10;;;17.30;1.00;;;;;;8322015;28;20541;-65
2022/07/17 04:54:09;;;;;;;2.73;1.00;;;17.30;1.00;;;;;;8325166;28;20202;-64
2022/07/17 04:58:09;;;;;;;3.20;0.70;;;17.00;1.00;;;;;;8340651;28;20202;-64
2022/07/17 05:02:10;;;;;;;3.03;1.10;;;17.20;1.00;;;;;;8332561;28;20186;-64
2022/07/17 05:06:11;;;;;;;4.50;0.93;;;17.10;1.00;;;;;;8323505;28;20189;-60
2022/07/17 05:10:12;;;;;;;3.27;1.00;;;17.40;1.00;;;;;;8330663;28;20201;-62
2022/07/17 05:14:13;;;;;;;3.77;1.00;;;17.70;1.00;;;;;;8338331;28;20186;-64
2022/07/17 05:18:13;;;;;;;2.37;0.93;;;17.20;1.00;;;;;;8345892;28;20265;-64
2022/07/17 05:22:15;;;;;;;3.13;0.90;;;16.30;1.00;;;;;;8324406;28;20182;-64
2022/07/17 05:26:15;;;;;;;2.83;1.20;;;15.80;9.10;;;;;;8352905;28;20185;-63
2022/07/17 05:30:16;;;;;;;7.67;1.43;;;15.30;76.10;;;;;;8341307;28;20246;-74
2022/07/17 05:34:17;;;;;;;7.03;1.10;;;15.00;98.30;;;;;;8356581;28;20233;-65
2022/07/17 05:38:18;;;;;;;4.67;1.03;;;15.00;95.20;;;;;;8321002;28;20201;-64
2022/07/17 05:42:18;;;;;;;4.97;1.33;;;14.80;99.90;;;;;;8339406;28;20174;-63
2022/07/17 05:46:19;;;;;;;5.33;1.03;;;14.90;99.90;;;;;;8327468;28;20189;-64
2022/07/17 05:50:20;;;;;;;2.87;1.10;;;15.00;99.90;;;;;;8326928;28;21770;-64
2022/07/17 05:54:21;;;;;;;4.17;1.10;;;15.10;99.90;;;;;;8322079;28;20198;-66
2022/07/17 05:58:22;;;;;;;3.00;1.10;;;15.30;99.90;;;;;;8325395;28;20206;-62
2022/07/17 06:02:23;;;;;;;3.77;1.10;;;15.40;99.90;;;;;;8341979;28;20181;-65
2022/07/17 06:06:24;;;;;;;2.53;0.90;;;15.40;98.60;;;;;;8329570;28;20197;-64
2022/07/17 06:10:26;;;;;;;3.50;1.17;;;15.40;99.90;;;;;;8331383;28;20197;-65
2022/07/17 06:14:27;;;;;;;7.60;1.87;;;15.50;99.90;;;;;;8331405;28;20207;-67
2022/07/17 06:18:28;;;;;;;3.20;0.97;;;15.50;99.90;;;;;;8351612;28;20209;-64
2022/07/17 06:22:28;;;;;;;3.13;0.90;;;15.60;99.20;;;;;;8344429;28;20284;-64
2022/07/17 06:26:29;;;;;;;3.90;1.17;;;15.90;83.50;;;;;;8351788;28;20193;-64
2022/07/17 06:30:30;;;;;;;4.47;1.07;;;15.80;99.10;;;;;;8347656;28;20270;-64
2022/07/17 06:34:31;;;;;;;5.10;1.60;;;15.90;96.50;;;;;;8334201;28;20189;-65
2022/07/17 06:38:33;;;;;;;3.73;1.00;;;16.10;97.10;;;;;;8353784;28;20406;-65
2022/07/17 06:42:34;;;;;;;5.33;1.33;;;16.30;64.40;;;;;;8337559;28;20206;-65
2022/07/17 06:46:35;;;;;;;5.00;0.90;;;16.30;61.90;;;;;;8331588;28;20178;-64
2022/07/17 06:50:36;;;;;;;4.13;1.33;;;16.40;44.50;;;;;;8337250;28;20264;-67
2022/07/17 06:54:36;;;;;;;3.97;1.00;;;16.50;39.30;;;;;;8337976;28;20201;-63
2022/07/17 06:58:37;;;;;;;3.80;1.00;;;16.70;49.80;;;;;;8335872;28;20237;-65
2022/07/17 07:02:38;;;;;;;4.47;0.97;;;17.00;30.00;;;;;;8333050;28;20261;-68
2022/07/17 07:06:39;;;;;;;2.60;0.80;;;17.30;11.20;;;;;;8328083;28;20213;-62
2022/07/17 07:10:40;;;;;;;2.10;0.77;;;17.50;9.00;;;;;;8338986;28;20260;-66
2022/07/17 07:14:40;;;;;;;6.53;0.70;;;17.50;14.40;;;;;;8337273;28;20193;-65
2022/07/17 07:18:41;;;;;;;3.57;0.93;;;17.40;6.10;;;;;;8329503;28;20225;-64
2022/07/17 07:22:42;;;;;;;2.80;0.60;;;17.60;1.00;;;;;;8351964;28;20178;-66
2022/07/17 07:26:43;;;;;;;5.13;1.10;;;17.70;1.00;;;;;;8332573;28;20256;-63
2022/07/17 07:30:44;;;;;;;4.67;1.00;;;17.50;1.00;;;;;;8341516;28;20297;-64
2022/07/17 07:34:45;;;;;;;5.43;0.93;;;17.50;1.00;;;;;;8346520;28;20186;-65
2022/07/17 07:38:46;;;;;;;2.37;0.80;;;17.70;1.00;;;;;;8340938;28;20228;-65
2022/07/17 07:42:47;;;;;;;3.87;1.00;;;17.70;1.00;;;;;;8331371;28;20501;-65
2022/07/17 07:46:48;;;;;;;5.40;0.80;;;18.40;1.00;;;;;;8351502;28;20181;-70
2022/07/17 07:50:49;;;;;;;3.67;0.80;;;18.90;1.00;;;;;;8327128;28;20216;-66
2022/07/17 07:54:50;;;;;;;7.03;1.50;;;18.70;1.00;;;;;;8325115;28;20203;-67
2022/07/17 07:58:51;;;;;;;7.23;1.30;;;18.20;1.00;;;;;;8355088;28;20256;-66
2022/07/17 08:02:52;;;;;;;3.57;1.07;;;18.60;1.00;;;;;;8331114;28;20608;-68
2022/07/17 08:06:53;;;;;;;4.40;1.27;;;18.90;1.00;;;;;;8347863;28;20500;-67
2022/07/17 08:10:54;;;;;;;4.67;1.00;;;19.30;1.00;;;;;;8347330;28;20308;-65
2022/07/17 08:14:55;;;;;;;4.43;0.97;;;18.50;1.00;;;;;;8339911;28;20190;-67
2022/07/17 08:18:55;;;;;;;4.03;0.80;;;18.10;1.00;;;;;;8329295;28;20201;-66
2022/07/17 08:22:56;;;;;;;6.63;1.10;;;18.30;1.00;;;;;;8324931;28;20243;-65
2022/07/17 08:26:57;;;;;;;3.40;1.47;;;18.30;1.00;;;;;;8338738;28;20190;-66
2022/07/17 08:30:58;;;;;;;4.73;0.70;;;18.30;1.00;;;;;;8325622;28;20203;-64
2022/07/17 08:34:59;;;;;;;3.80;1.20;;;18.60;1.00;;;;;;8343459;28;20197;-64
2022/07/17 08:39:00;;;;;;;1.53;0.63;;;18.70;1.00;;;;;;8319224;28;20217;-66
2022/07/17 08:43:03;;;;;;;1.97;1.00;;;18.30;1.00;;;;;;8322249;28;20219;-64
2022/07/17 08:47:05;;;;;;;3.73;1.00;;;18.40;1.00;;;;;;8323996;28;20272;-68
2022/07/17 08:51:07;;;;;;;1.03;0.50;;;18.70;1.00;;;;;;8324133;28;20541;-62
2022/07/17 08:55:14;;;;;;;2.70;0.90;;;19.00;1.00;;;;;;8343321;28;20198;-66
2022/07/17 08:59:14;;;;;;;5.13;1.23;;;19.00;1.00;;;;;;8327333;28;20203;-67
2022/07/17 09:03:17;;;;;;;2.90;1.00;;;18.60;1.00;;;;;;8325542;28;20332;-67
2022/07/17 09:07:18;;;;;;;3.77;1.00;;;19.10;1.00;;;;;;8335407;28;20232;-66
2022/07/17 09:11:19;;;;;;;6.40;1.60;;;19.60;1.00;;;;;;8333444;28;20201;-67
2022/07/17 09:15:20;;;;;;;3.23;0.87;;;19.20;1.00;;;;;;8320024;28;20190;-70
2022/07/17 09:19:47;;;;;;;4.57;0.90;;;19.00;1.00;;;;;;8339971;28;20291;-67
2022/07/17 09:24:05;;;;;;;1.77;0.80;;;19.40;1.00;;;;;;8317961;28;20194;-66
2022/07/17 09:28:08;;;;;;;2.40;0.93;;;19.20;1.00;;;;;;8341053;28;20439;-66
2022/07/17 09:32:09;;;;;;;4.93;1.10;;;18.90;1.00;;;;;;8323797;28;20208;-64
2022/07/17 09:36:13;;;;;;;5.27;1.20;;;18.90;1.00;;;;;;8325363;28;20186;-70
2022/07/17 09:44:34;;;;;;;4.30;1.10;;;19.00;1.00;;;;;;8332543;28;20208;-68
2022/07/17 09:48:41;;;;;;;3.03;0.80;;;19.10;1.00;;;;;;8323501;28;20190;-68
2022/07/17 09:52:43;;;;;;;3.60;0.77;;;19.30;1.00;;;;;;8325956;28;20222;-68
2022/07/17 09:56:47;;;;;;;4.03;0.83;;;19.60;1.00;;;;;;8346099;28;20246;-71
2022/07/17 10:00:48;;;;;;;3.23;0.70;;;19.70;1.00;;;;;;8318791;28;20534;-68
2022/07/17 10:04:49;;;;;;;6.20;0.87;;;19.80;1.00;;;;;;8338279;28;20185;-67
2022/07/17 10:08:51;;;;;;;4.13;0.97;;;19.60;1.00;;;;;;8325769;28;20609;-68
2022/07/17 10:12:52;;;;;;;5.03;0.90;;;19.60;1.00;;;;;;8338004;28;20202;-65
2022/07/17 10:16:53;;;;;;;1.87;0.60;;;20.00;1.00;;;;;;8335286;28;20193;-67
2022/07/17 10:21:16;;;;;;;3.93;0.70;;;19.80;1.00;;;;;;8323695;28;20531;-66
2022/07/17 10:25:17;;;;;;;3.07;0.53;;;20.20;1.00;;;;;;8326203;28;20186;-64
2022/07/17 10:29:35;;;;;;;3.63;1.10;;;20.50;1.00;;;;;;8352117;28;20190;-68
2022/07/17 10:33:36;;;;;;;4.00;0.77;;;21.10;1.00;;;;;;8342766;28;20191;-65
2022/07/17 10:37:37;;;;;;;1.60;0.50;;;20.70;1.00;;;;;;8334493;28;20261;-69
2022/07/17 10:41:40;;;;;;;2.17;0.70;;;20.60;1.00;;;;;;8339952;28;20272;-65
2022/07/17 10:45:42;;;;;;;3.13;0.60;;;20.90;1.00;;;;;;8322979;28;20328;-63
2022/07/17 10:49:43;;;;;;;3.83;0.90;;;21.50;1.00;;;;;;8334972;28;20236;-64
2022/07/17 10:53:44;;;;;;;2.53;0.80;;;21.80;1.00;;;;;;8338425;28;20229;-65
2022/07/17 10:57:47;;;;;;;1.93;0.67;;;21.50;1.00;;;;;;8320490;28;20186;-66
2022/07/17 11:01:56;;;;;;;3.93;0.83;;;21.00;1.00;;;;;;8343049;28;20221;-68
2022/07/17 11:06:07;;;;;;;4.17;0.87;;;21.10;1.00;;;;;;8320229;28;20253;-69
2022/07/17 11:10:13;;;;;;;3.70;1.03;;;21.00;1.00;;;;;;8342102;28;20214;-64
2022/07/17 11:14:20;;;;;;;3.40;0.80;;;20.50;1.00;;;;;;8323590;28;20301;-67
2022/07/17 11:18:22;;;;;;;1.80;0.90;;;20.40;1.00;;;;;;8344324;28;20526;-65
2022/07/17 11:22:24;;;;;;;3.03;0.73;;;20.50;1.00;;;;;;8322899;28;20217;-67
2022/07/17 11:26:25;;;;;;;8.03;1.10;;;20.70;1.00;;;;;;8347675;28;20190;-69
2022/07/17 11:30:26;;;;;;;4.07;1.20;;;20.40;1.00;;;;;;8340978;28;20198;-71
2022/07/17 11:34:29;;;;;;;3.33;0.90;;;20.50;1.00;;;;;;8342279;28;20194;-64
2022/07/17 11:38:30;;;;;;;3.80;0.63;;;20.50;1.00;;;;;;8327535;28;20229;-65
2022/07/17 11:42:31;;;;;;;5.07;0.97;;;20.50;1.00;;;;;;8325922;28;20208;-66
2022/07/17 11:46:33;;;;;;;1.70;0.83;;;20.60;1.00;;;;;;8345288;28;20229;-66
2022/07/17 11:50:34;;;;;;;2.87;0.73;;;20.70;1.00;;;;;;8343432;28;20918;-67
2022/07/17 11:54:56;;;;;;;3.07;0.73;;;20.90;1.00;;;;;;8333994;28;20209;-67
2022/07/17 11:58:57;;;;;;;3.73;1.00;;;21.10;1.00;;;;;;8343125;28;20205;-67
2022/07/17 12:03:03;;;;;;;2.80;0.73;;;21.30;1.00;;;;;;8358868;28;20309;-70
2022/07/17 12:07:04;;;;;;;1.67;0.80;;;21.30;1.00;;;;;;8360836;28;20358;-65
2022/07/17 12:11:08;;;;;;;3.13;0.80;;;22.00;1.00;;;;;;8330202;28;20273;-66
2022/07/17 12:15:10;;;;;;;3.00;1.23;;;22.10;1.00;;;;;;8326600;28;20209;-67
2022/07/17 12:19:15;;;;;;;4.43;1.13;;;21.60;1.00;;;;;;8318720;28;20210;-69
2022/07/17 12:23:37;;;;;;;5.03;1.07;;;21.50;1.00;;;;;;8343334;28;20186;-70
2022/07/17 12:27:37;;;;;;;3.93;0.70;;;22.10;1.00;;;;;;8329300;28;20208;-71
2022/07/17 12:31:38;;;;;;;2.57;0.83;;;22.60;1.00;;;;;;8328921;28;20213;-66
2022/07/17 12:35:39;;;;;;;3.57;0.83;;;21.90;1.00;;;;;;8326329;28;20213;-64
2022/07/17 12:39:40;;;;;;;4.40;1.20;;;21.20;1.00;;;;;;8324951;28;20222;-68
2022/07/17 12:43:41;;;;;;;3.23;0.90;;;21.20;1.00;;;;;;8338449;28;20257;-70
2022/07/17 12:47:42;;;;;;;4.23;0.70;;;21.20;1.00;;;;;;8339825;28;20209;-70
2022/07/17 12:51:43;;;;;;;5.17;1.00;;;21.50;1.00;;;;;;8340683;28;20218;-67
2022/07/17 12:55:44;;;;;;;2.33;0.73;;;21.70;1.00;;;;;;8362437;28;20301;-64
2022/07/17 12:59:44;;;;;;;4.17;0.90;;;21.80;1.00;;;;;;8332891;28;20747;-69
2022/07/17 13:03:47;;;;;;;1.97;0.70;;;21.90;1.00;;;;;;8342479;28;20237;-69
2022/07/17 13:07:47;;;;;;;4.47;0.97;;;21.90;1.00;;;;;;8323177;28;20187;-67
2022/07/17 13:11:51;;;;;;;3.13;1.00;;;21.80;1.00;;;;;;8324619;28;20189;-69
2022/07/17 13:15:52;;;;;;;3.40;1.00;;;21.90;1.00;;;;;;8321669;28;20218;-68
2022/07/17 13:19:53;;;;;;;3.03;0.60;;;21.90;1.00;;;;;;8337969;28;20209;-70
2022/07/17 13:23:54;;;;;;;2.50;0.70;;;22.60;1.00;;;;;;8334770;28;20256;-66
2022/07/17 13:27:55;;;;;;;3.13;1.00;;;23.00;1.00;;;;;;8341849;28;20217;-65
2022/07/17 13:31:56;;;;;;;3.37;0.90;;;23.40;1.00;;;;;;8321340;28;20193;-64
2022/07/17 13:35:57;;;;;;;3.23;0.80;;;24.00;1.00;;;;;;8327627;28;20268;-65
2022/07/17 13:39:58;;;;;;;2.80;0.93;;;24.30;1.00;;;;;;8350105;28;20226;-65
2022/07/17 13:43:59;;;;;;;4.67;1.00;;;24.60;1.00;;;;;;8341063;28;20193;-63
2022/07/17 13:48:00;;;;;;;3.17;0.90;;;23.20;1.00;;;;;;8333054;28;20197;-66
2022/07/17 13:52:01;;;;;;;2.57;1.00;;;23.40;1.00;;;;;;8342458;28;20225;-66
2022/07/17 13:56:02;;;;;;;3.70;0.90;;;24.00;1.00;;;;;;8327869;28;20200;-65
2022/07/17 14:00:05;;;;;;;3.20;0.87;;;24.50;1.00;;;;;;8346331;28;20206;-68
2022/07/17 14:04:06;;;;;;;4.00;1.27;;;23.40;1.00;;;;;;8332163;28;20194;-67
2022/07/17 14:08:07;;;;;;;4.10;1.10;;;22.80;1.00;;;;;;8339987;28;20183;-65
2022/07/17 14:12:08;;;;;;;5.17;1.10;;;22.40;1.00;;;;;;8326747;28;20193;-66
2022/07/17 14:16:09;;;;;;;2.17;0.70;;;22.10;1.00;;;;;;8319014;28;20197;-62
2022/07/17 14:20:11;;;;;;;3.00;0.70;;;21.80;1.00;;;;;;8322537;28;20236;-67
2022/07/17 14:24:12;;;;;;;3.57;0.60;;;22.10;1.00;;;;;;8320252;28;20240;-68
2022/07/17 14:28:13;;;;;;;4.50;0.80;;;22.20;1.00;;;;;;8341315;28;20186;-63
2022/07/17 14:32:14;;;;;;;3.10;1.00;;;22.60;1.00;;;;;;8316648;28;20194;-68
2022/07/17 14:36:15;;;;;;;4.83;0.70;;;23.00;1.00;;;;;;8338060;28;20235;-66
2022/07/17 14:40:16;;;;;;;3.07;0.70;;;22.90;1.00;;;;;;8340132;28;20214;-65
2022/07/17 14:44:17;;;;;;;2.23;0.90;;;22.70;1.00;;;;;;8341974;28;20189;-64
2022/07/17 14:48:18;;;;;;;1.53;0.57;;;22.50;1.00;;;;;;8330537;28;20182;-63
2022/07/17 14:52:18;;;;;;;3.70;0.83;;;22.40;1.00;;;;;;8332765;28;20221;-63
2022/07/17 14:56:19;;;;;;;2.23;0.53;;;22.30;1.00;;;;;;8337491;28;20189;-65
2022/07/17 15:00:21;;;;;;;1.23;0.60;;;22.30;1.00;;;;;;8327626;28;20217;-68
2022/07/17 15:04:21;;;;;;;2.97;0.77;;;22.50;1.00;;;;;;8348461;28;20186;-70
2022/07/17 15:08:22;;;;;;;2.87;0.60;;;22.70;1.00;;;;;;8346850;28;20224;-63
2022/07/17 15:12:23;;;;;;;2.50;0.43;;;22.70;1.00;;;;;;8354256;28;20236;-68
2022/07/17 15:16:24;;;;;;;2.27;0.73;;;22.60;1.00;;;;;;8322341;28;20273;-65
2022/07/17 15:20:25;;;;;;;3.10;0.63;;;22.30;1.00;;;;;;8326439;28;20213;-68
2022/07/17 15:24:26;;;;;;;2.53;0.53;;;22.10;1.00;;;;;;8342632;28;20189;-69
2022/07/17 15:28:26;;;;;;;8.17;2.50;;;22.10;1.00;;;;;;8343280;28;20202;-65
2022/07/17 15:32:27;;;;;;;4.27;1.00;;;22.20;1.00;;;;;;8326785;28;20228;-63
2022/07/17 15:36:29;;;;;;;4.40;0.73;;;22.20;1.00;;;;;;8332781;28;20248;-64
2022/07/17 15:40:29;;;;;;;5.60;1.77;;;22.30;1.00;;;;;;8329959;28;20219;-67
2022/07/17 15:44:31;;;;;;;1.80;0.60;;;22.30;1.00;;;;;;8342277;28;20213;-67
2022/07/17 15:48:31;;;;;;;2.33;0.90;;;22.20;1.00;;;;;;8333164;28;20197;-64
2022/07/17 15:52:32;;;;;;;2.57;0.80;;;22.10;1.00;;;;;;8339295;28;20222;-65
2022/07/17 15:56:35;;;;;;;2.53;0.80;;;22.10;1.00;;;;;;8327226;28;20340;-65
2022/07/17 16:00:35;;;;;;;4.40;0.97;;;22.10;1.00;;;;;;8335638;28;20210;-66
2022/07/17 16:04:36;;;;;;;2.83;0.83;;;22.10;1.00;;;;;;8322158;28;20182;-63
2022/07/17 16:08:39;;;;;;;2.20;0.60;;;22.20;1.00;;;;;;8330175;28;20204;-67
2022/07/17 16:12:40;;;;;;;2.17;0.67;;;22.20;1.00;;;;;;8341626;28;20190;-65
2022/07/17 16:16:40;;;;;;;2.27;0.53;;;22.20;1.00;;;;;;8339384;28;20194;-63
2022/07/17 16:20:41;;;;;;;4.17;0.90;;;22.30;1.00;;;;;;8330394;28;20213;-70
2022/07/17 16:24:42;;;;;;;2.40;0.83;;;22.30;1.00;;;;;;8340973;28;20224;-64
2022/07/17 16:28:44;;;;;;;4.40;1.00;;;22.40;1.00;;;;;;8330567;28;20193;-63
2022/07/17 16:32:45;;;;;;;2.17;0.80;;;22.40;1.00;;;;;;8333861;28;20186;-63
2022/07/17 16:36:46;;;;;;;2.63;0.70;;;22.40;1.00;;;;;;8358775;28;20193;-64
2022/07/17 16:40:47;;;;;;;2.90;1.00;;;22.40;1.00;;;;;;8338073;28;20218;-64
2022/07/17 16:44:48;;;;;;;2.27;1.03;;;22.40;1.00;;;;;;8347356;28;20186;-63
2022/07/17 16:48:49;;;;;;;6.17;1.10;;;22.30;1.00;;;;;;8326200;28;20263;-63
2022/07/17 16:52:49;;;;;;;1.90;0.83;;;22.40;1.00;;;;;;8325344;28;20253;-64
2022/07/17 16:56:50;;;;;;;3.77;0.80;;;22.40;1.00;;;;;;8329280;28;20189;-63
2022/07/17 17:00:51;;;;;;;2.77;0.83;;;22.40;1.00;;;;;;8344143;28;20292;-63
2022/07/17 17:04:52;;;;;;;3.17;0.70;;;22.40;1.00;;;;;;8337973;28;20217;-65
2022/07/17 17:08:53;;;;;;;2.50;0.87;;;22.30;1.00;;;;;;8341801;28;20191;-65
2022/07/17 17:12:55;;;;;;;2.27;0.73;;;22.30;1.00;;;;;;8323389;28;20348;-65
2022/07/17 17:16:56;;;;;;;3.13;0.93;;;22.20;1.00;;;;;;8347592;28;20213;-65
2022/07/17 17:20:56;;;;;;;3.13;0.70;;;22.20;1.00;;;;;;8331463;28;20229;-65
2022/07/17 17:24:57;;;;;;;3.23;1.03;;;22.20;1.00;;;;;;8348955;28;20229;-65
2022/07/17 17:28:58;;;;;;;2.30;0.80;;;22.70;1.00;;;;;;8347597;28;20189;-62
2022/07/17 17:32:59;;;;;;;3.90;2.20;;;23.50;1.00;;;;;;8367201;28;20194;-63
2022/07/17 17:37:00;;;;;;;5.87;1.30;;;24.10;1.00;;;;;;8336246;28;20248;-64
2022/07/17 17:41:02;;;;;;;2.30;0.87;;;24.00;1.00;;;;;;8330503;28;20209;-63
2022/07/17 17:45:03;;;;;;;2.47;0.87;;;24.20;1.00;;;;;;8339977;28;20273;-64
2022/07/17 17:49:04;;;;;;;4.50;1.00;;;24.50;1.00;;;;;;8334880;28;20217;-65
2022/07/17 17:53:06;;;;;;;4.23;0.93;;;24.80;1.00;;;;;;8330957;28;20221;-67
2022/07/17 17:57:07;;;;;;;2.50;0.80;;;24.70;1.00;;;;;;8334022;28;20195;-63
2022/07/17 18:01:08;;;;;;;1.57;0.70;;;24.70;1.00;;;;;;8336695;28;20202;-63
2022/07/17 18:05:09;;;;;;;2.37;0.90;;;24.70;1.00;;;;;;8352007;28;20185;-64
2022/07/17 18:09:11;;;;;;;4.77;1.00;;;24.90;1.00;;;;;;8329333;28;20194;-63
2022/07/17 18:13:12;;;;;;;2.80;1.00;;;24.80;1.00;;;;;;8352480;28;20201;-64
2022/07/17 18:17:13;;;;;;;7.13;2.70;;;24.80;1.00;;;;;;8345842;28;20275;-64
2022/07/17 18:21:14;;;;;;;6.93;3.20;;;25.30;1.00;;;;;;8329928;28;20205;-63
2022/07/17 18:25:15;;;;;;;5.87;2.20;;;25.40;1.00;;;;;;8328365;28;20186;-63
2022/07/17 18:29:16;;;;;;;3.07;1.33;;;26.00;1.00;;;;;;8347845;28;20245;-62
2022/07/17 18:33:17;;;;;;;2.90;0.80;;;26.00;1.00;;;;;;8332242;28;20190;-62
2022/07/17 18:37:18;;;;;;;1.97;0.70;;;25.30;1.00;;;;;;8375263;28;20192;-66
2022/07/17 18:41:19;;;;;;;2.47;1.20;;;24.70;1.00;;;;;;8349135;28;20963;-64
2022/07/17 18:45:20;;;;;;;3.13;1.00;;;23.70;1.00;;;;;;8347133;28;20201;-64
2022/07/17 18:49:20;;;;;;;1.47;0.80;;;23.20;1.00;;;;;;8336701;28;20198;-65
2022/07/17 18:53:23;;;;;;;1.50;0.70;;;22.80;1.00;;;;;;8379025;28;20229;-66
2022/07/17 18:57:24;;;;;;;1.33;0.80;;;22.20;1.00;;;;;;8337081;28;20242;-67
2022/07/17 19:01:25;;;;;;;1.10;0.60;;;21.40;1.00;;;;;;8338498;28;20225;-65
2022/07/17 19:05:27;;;;;;;1.23;0.60;;;20.70;1.00;;;;;;8325542;28;20193;-63
2022/07/17 19:09:28;;;;;;;1.40;0.63;;;20.00;1.00;;;;;;8328522;28;20611;-65
2022/07/17 19:13:30;;;;;;;2.00;0.60;;;19.30;1.00;;;;;;8329942;28;20191;-64
2022/07/17 19:17:31;;;;;;;1.77;0.90;;;18.80;1.00;;;;;;8326002;28;20192;-65
2022/07/17 19:21:48;;;;;;;1.27;0.70;;;18.30;1.00;;;;;;8318834;28;20210;-64
2022/07/17 19:25:49;;;;;;;1.87;1.00;;;17.80;1.00;;;;;;8340245;28;20182;-64
2022/07/17 19:29:51;;;;;;;1.60;0.90;;;17.40;1.00;;;;;;8337670;28;20183;-64
2022/07/17 19:33:52;;;;;;;1.90;1.07;;;17.10;1.00;;;;;;8342521;28;20193;-65
2022/07/17 19:37:53;;;;;;;1.70;0.97;;;16.70;1.00;;;;;;8337324;28;20210;-64
2022/07/17 19:41:54;;;;;;;2.63;0.87;;;16.40;1.00;;;;;;8333738;28;20537;-70
2022/07/17 19:45:55;;;;;;;1.83;1.13;;;16.10;1.00;;;;;;8328173;28;20236;-64
2022/07/17 19:49:56;;;;;;;2.73;1.07;;;15.90;1.00;;;;;;8346053;28;20185;-64
2022/07/17 19:53:57;;;;;;;1.40;1.00;;;15.70;6.60;;;;;;8329103;28;20198;-65
2022/07/17 19:57:58;;;;;;;1.93;1.00;;;15.40;13.50;;;;;;8327514;28;20186;-66
2022/07/17 20:01:59;;;;;;;1.93;0.80;;;15.20;28.30;;;;;;8343519;28;20208;-64
2022/07/17 20:06:00;;;;;;;0.70;0.60;;;15.00;40.20;;;;;;8336883;28;20186;-65
2022/07/17 20:10:01;;;;;;;1.30;0.90;;;14.80;59.20;;;;;;8331324;28;20193;-63
2022/07/17 20:14:03;;;;;;;2.07;0.93;;;14.60;87.90;;;;;;8326648;28;20234;-65
2022/07/17 20:18:04;;;;;;;1.20;0.87;;;14.40;91.30;;;;;;8327516;28;20273;-65
2022/07/17 20:22:05;;;;;;;1.87;0.73;;;14.30;92.40;;;;;;8319446;28;20241;-65
2022/07/17 20:26:07;;;;;;;1.73;1.00;;;14.20;99.90;;;;;;8339277;28;20218;-64
2022/07/17 20:30:08;;;;;;;1.70;0.87;;;14.10;99.90;;;;;;8332678;28;20228;-67
2022/07/17 20:34:09;;;;;;;1.53;0.80;;;14.00;99.90;;;;;;8330309;28;20209;-64
2022/07/17 20:38:10;;;;;;;1.57;1.00;;;13.90;99.90;;;;;;8345005;28;20195;-64
2022/07/17 20:42:11;;;;;;;1.23;0.80;;;13.70;99.90;;;;;;8346192;28;20222;-64
2022/07/17 20:46:18;;;;;;;1.73;0.80;;;13.60;99.90;;;;;;8344573;28;20189;-65
2022/07/17 20:50:19;;;;;;;0.77;0.60;;;13.50;99.90;;;;;;8326857;28;20509;-64
2022/07/17 20:54:20;;;;;;;1.70;0.90;;;13.40;99.90;;;;;;8344543;28;20205;-65
2022/07/17 20:58:24;;;;;;;1.70;0.90;;;13.20;99.90;;;;;;8329049;28;20193;-65
2022/07/17 21:02:25;;;;;;;1.23;0.90;;;13.00;99.90;;;;;;8339508;28;20181;-64
2022/07/17 21:06:26;;;;;;;8.80;3.47;;;12.90;99.90;;;;;;8334766;28;20187;-63
2022/07/17 21:10:27;;;;;;;13.93;5.10;;;12.80;99.90;;;;;;8326566;28;20182;-64
2022/07/17 21:14:28;;;;;;;11.23;6.07;;;12.80;99.90;;;;;;8323821;28;20212;-63